Time;durP1;ratioP1;P1;durP2;ratioP2;P2;SDS_P1;SDS_P2;PMS_P1;PMS_P2;Temp;Humidity;BMP_temperature;BMP_pressure;BME280_temperature;BME280_humidity;BME280_pressure;Samples;Min_cycle;Max_cycle;Signal;HPM_P1;HPM_P2
2023/12/05 00:03:45;;;;;;;10.00;4.75;;;;;;;9.30;87.62;100955.19;10339681;28;97068;-79
2023/12/05 00:08:57;;;;;;;12.32;5.45;;;;;;;9.29;87.22;100958.75;10339853;28;97241;-79
2023/12/05 00:14:02;;;;;;;8.63;5.15;;;;;;;9.34;86.95;100959.50;10338594;28;96736;-79
2023/12/05 00:19:12;;;;;;;12.35;5.10;;;;;;;9.44;87.04;100947.88;10337306;28;97212;-79
2023/12/05 00:24:38;;;;;;;;;;;;;;;;;;;;;
2023/12/05 00:29:44;;;;;;;11.38;5.28;;;;;;;9.30;87.21;100977.09;10335745;28;97617;-80
2023/12/05 00:34:50;;;;;;;13.38;5.70;;;;;;;9.31;87.63;100972.72;10337364;28;97434;-79
2023/12/05 00:40:08;;;;;;;11.55;5.50;;;;;;;9.33;87.63;100955.16;10338335;28;96886;-79
2023/12/05 00:45:19;;;;;;;8.73;5.30;;;;;;;9.34;87.41;100951.63;10337643;28;97260;-79
2023/12/05 00:50:24;;;;;;;9.75;5.03;;;;;;;9.18;88.39;100951.06;10337626;28;97126;-79
2023/12/05 00:55:53;;;;;;;9.35;5.00;;;;;;;9.05;88.88;100958.34;10369088;28;96787;-79
2023/12/05 01:01:01;;;;;;;9.43;5.28;;;;;;;9.09;88.67;100938.16;10378780;28;97369;-79
2023/12/05 01:06:09;;;;;;;8.55;4.45;;;;;;;9.11;87.52;100933.72;10345401;28;97144;-79
2023/12/05 01:11:24;;;;;;;7.65;4.65;;;;;;;8.99;88.41;100931.38;10336288;28;97325;-78
2023/12/05 01:16:30;;;;;;;10.60;4.65;;;;;;;8.90;88.02;100921.09;10336395;28;96801;-79
2023/12/05 01:21:36;;;;;;;7.55;4.05;;;;;;;8.88;88.12;100918.50;10336702;28;96595;-79
2023/12/05 01:26:44;;;;;;;10.90;4.50;;;;;;;8.82;88.87;100915.16;10335797;28;96685;-79
2023/12/05 01:31:53;;;;;;;11.00;5.28;;;;;;;8.75;89.25;100910.94;10336840;28;96890;-79
2023/12/05 01:36:58;;;;;;;9.93;4.40;;;;;;;8.77;88.50;100894.28;10335753;28;97523;-79
2023/12/05 01:42:04;;;;;;;;;;;;;;;8.77;88.36;100889.03;10336563;28;96666;-79
2023/12/05 01:47:18;;;;;;;;;;;;;;;;;;;;;
2023/12/05 01:52:23;;;;;;;8.10;4.73;;;;;;;8.88;87.82;100897.50;10349338;28;96913;-79
2023/12/05 01:57:29;;;;;;;6.85;4.28;;;;;;;8.88;88.52;100886.13;10365909;28;97307;-79
2023/12/05 02:02:35;;;;;;;9.88;4.50;;;;;;;8.92;87.92;100893.06;10333504;28;96733;-79
2023/12/05 02:07:43;;;;;;;9.05;4.10;;;;;;;8.77;88.15;100882.91;10335313;28;96584;-79
2023/12/05 02:12:51;;;;;;;10.95;4.32;;;;;;;8.65;89.07;100877.94;10334714;28;96679;-79
2023/12/05 02:18:05;;;;;;;7.97;4.25;;;;;;;8.53;88.93;100870.34;10334701;28;97364;-79
2023/12/05 02:23:34;;;;;;;7.88;4.15;;;;;;;8.44;89.08;100871.38;10335071;28;96634;-79
2023/12/05 02:28:41;;;;;;;8.52;4.25;;;;;;;8.35;90.08;100876.81;10334944;28;97331;-79
2023/12/05 02:33:45;;;;;;;10.90;4.13;;;;;;;8.28;90.24;100882.22;10334626;28;97189;-79
2023/12/05 02:39:03;;;;;;;8.98;4.18;;;;;;;8.27;89.96;100889.25;10335211;28;97284;-79
2023/12/05 02:44:12;;;;;;;10.15;4.13;;;;;;;8.30;89.29;100883.91;10334627;28;97080;-79
2023/12/05 02:49:15;;;;;;;7.40;3.90;;;;;;;8.30;89.44;100878.69;10334058;28;96852;-79
2023/12/05 02:54:19;;;;;;;8.50;3.70;;;;;;;8.23;89.86;100871.84;10333173;28;97095;-79
2023/12/05 02:59:24;;;;;;;5.88;3.53;;;;;;;8.26;89.90;100871.75;10334136;28;96642;-79
2023/12/05 03:04:27;;;;;;;9.50;4.00;;;;;;;8.21;89.59;100864.88;10333064;28;96733;-79
2023/12/05 03:09:31;;;;;;;7.68;4.05;;;;;;;8.21;89.49;100851.78;10335142;28;97167;-79
2023/12/05 03:14:36;;;;;;;7.40;3.45;;;;;;;8.16;89.43;100846.63;10338656;28;96745;-79
2023/12/05 03:19:41;;;;;;;9.13;4.18;;;;;;;8.25;89.14;100858.69;10341167;28;96996;-79
2023/12/05 03:24:45;;;;;;;5.78;3.08;;;;;;;8.23;88.56;100874.44;10340732;28;96920;-79
2023/12/05 03:29:49;;;;;;;7.63;3.25;;;;;;;8.30;88.31;100869.94;10341153;28;97156;-79
2023/12/05 03:34:54;;;;;;;9.68;3.50;;;;;;;8.23;87.85;100870.97;10339540;28;96699;-79
2023/12/05 03:39:58;;;;;;;9.07;3.80;;;;;;;8.31;87.86;100858.53;10339815;28;96768;-79
2023/12/05 03:45:05;;;;;;;;;;;;;;;8.27;87.42;100849.91;10338972;28;96586;-79
2023/12/05 03:50:09;;;;;;;7.50;2.93;;;;;;;8.24;87.33;100836.84;10381061;28;96590;-79
2023/12/05 03:55:17;;;;;;;6.18;3.42;;;;;;;8.20;86.74;100834.34;10379373;28;97340;-79
2023/12/05 04:00:22;;;;;;;9.90;3.22;;;;;;;8.26;86.96;100842.91;10339528;28;96634;-79
2023/12/05 04:05:26;;;;;;;7.30;3.45;;;;;;;8.31;87.04;100833.19;10356220;22;97131;-79
2023/12/05 04:10:29;;;;;;;7.32;3.42;;;;;;;8.21;86.28;100841.28;10347316;28;97029;-79
2023/12/05 04:15:34;;;;;;;9.00;3.47;;;;;;;8.27;86.34;100836.81;10407728;28;96676;-79
2023/12/05 04:20:40;;;;;;;7.15;3.22;;;;;;;8.28;85.73;100830.66;10422822;28;96808;-79
2023/12/05 04:25:43;;;;;;;5.88;3.00;;;;;;;8.31;86.17;100816.59;10391203;27;96642;-79
2023/12/05 04:30:48;;;;;;;6.15;3.65;;;;;;;8.28;85.46;100809.69;10393013;28;96739;-79
2023/12/05 04:35:51;;;;;;;9.32;3.90;;;;;;;8.28;85.39;100795.69;10400864;28;97244;-79
2023/12/05 04:40:56;;;;;;;7.68;3.75;;;;;;;8.24;85.71;100788.81;10379347;28;96812;-79
2023/12/05 04:46:02;;;;;;;6.43;3.33;;;;;;;8.26;84.16;100790.50;10379637;28;96590;-79
2023/12/05 04:51:08;;;;;;;5.50;3.30;;;;;;;8.20;84.62;100792.38;10379666;28;96960;-79
2023/12/05 04:56:12;;;;;;;6.25;3.13;;;;;;;8.22;83.96;100788.81;10379078;28;96755;-79
2023/12/05 05:01:17;;;;;;;8.55;2.70;;;;;;;8.26;83.91;100795.72;10378824;28;98024;-79
2023/12/05 05:06:22;;;;;;;6.25;3.42;;;;;;;8.17;84.04;100787.22;10404910;28;96832;-79
2023/12/05 05:11:25;;;;;;;6.20;2.53;;;;;;;8.15;83.55;100779.34;10421034;28;97146;-79
2023/12/05 05:16:30;;;;;;;5.97;3.00;;;;;;;8.22;84.18;100778.34;10419949;28;97680;-79
2023/12/05 05:21:34;;;;;;;4.35;2.88;;;;;;;8.14;83.49;100782.00;10419250;28;96760;-79
2023/12/05 05:26:37;;;;;;;5.07;3.20;;;;;;;8.13;83.34;100786.41;10418559;28;97422;-79
2023/12/05 05:31:42;;;;;;;7.20;2.92;;;;;;;8.16;83.82;100773.25;10419791;28;96724;-79
2023/12/05 05:36:46;;;;;;;6.22;3.00;;;;;;;8.08;84.10;100769.94;10412209;27;97155;-79
2023/12/05 05:41:51;;;;;;;5.97;2.72;;;;;;;8.04;84.18;100770.00;10378488;28;97313;-79
2023/12/05 05:46:56;;;;;;;5.78;2.50;;;;;;;8.04;84.46;100765.63;10377407;28;96671;-79
2023/12/05 05:52:01;;;;;;;4.90;2.95;;;;;;;8.09;84.17;100768.16;10376863;28;96689;-79
2023/12/05 05:57:06;;;;;;;4.80;2.72;;;;;;;8.11;83.89;100788.22;10377901;28;96756;-79
2023/12/05 06:02:13;;;;;;;6.75;3.20;;;;;;;8.16;83.61;100785.47;10378167;28;97025;-79
2023/12/05 06:07:16;;;;;;;5.32;2.58;;;;;;;8.15;83.91;100774.13;10377721;28;96737;-79
2023/12/05 06:12:20;;;;;;;6.68;2.88;;;;;;;8.20;83.60;100780.16;10377147;28;96723;-79
2023/12/05 06:17:25;;;;;;;7.35;2.78;;;;;;;8.05;83.98;100763.88;10375309;28;96670;-79
2023/12/05 06:22:29;;;;;;;7.25;3.38;;;;;;;7.98;84.57;100763.13;10376408;28;97260;-79
2023/12/05 06:27:32;;;;;;;5.50;3.05;;;;;;;8.04;84.46;100786.59;10376201;28;96682;-79
2023/12/05 06:32:37;;;;;;;6.03;2.50;;;;;;;7.91;84.75;100774.63;10376391;28;97659;-79
2023/12/05 06:37:41;;;;;;;4.95;2.63;;;;;;;7.87;85.60;100759.91;10375646;28;96715;-79
2023/12/05 06:42:44;;;;;;;6.30;2.88;;;;;;;7.85;85.16;100764.28;10375398;28;96749;-79
2023/12/05 06:47:49;;;;;;;4.85;2.78;;;;;;;7.90;84.90;100772.91;10401426;28;97420;-79
2023/12/05 06:52:57;;;;;;;5.57;2.60;;;;;;;7.97;84.51;100769.28;10418242;28;97097;-79
2023/12/05 06:58:00;;;;;;;3.78;2.22;;;;;;;7.99;84.90;100778.81;10382563;28;96705;-79
2023/12/05 07:03:05;;;;;;;6.22;2.58;;;;;;;8.01;85.11;100783.19;10382734;28;96810;-79
2023/12/05 07:08:09;;;;;;;;;;;;;;;8.00;84.59;100766.59;10381607;28;97671;-79
2023/12/05 07:13:12;;;;;;;5.00;2.72;;;;;;;7.93;84.84;100772.84;10382335;28;96878;-79
2023/12/05 07:18:17;;;;;;;6.72;3.00;;;;;;;7.95;84.45;100771.94;10382039;28;96590;-79
2023/12/05 07:23:21;;;;;;;;;;;;;;;7.96;84.51;100778.06;10382949;28;96733;-79
2023/12/05 07:28:24;;;;;;;4.45;2.88;;;;;;;7.92;84.65;100773.75;10382095;28;97100;-79
2023/12/05 07:33:29;;;;;;;4.65;3.25;;;;;;;7.87;84.46;100780.84;10381342;28;96594;-79
2023/12/05 07:38:39;;;;;;;6.30;3.33;;;;;;;7.83;84.72;100784.41;10398124;28;97192;-79
2023/12/05 07:43:44;;;;;;;6.50;3.65;;;;;;;7.93;84.48;100799.06;10382283;28;97678;-79
2023/12/05 07:48:49;;;;;;;5.53;3.58;;;;;;;7.95;84.44;100799.88;10381470;28;96592;-79
2023/12/05 07:53:53;;;;;;;6.38;3.40;;;;;;;7.89;84.44;100794.78;10386683;28;97050;-79
2023/12/05 07:58:56;;;;;;;6.60;3.10;;;;;;;7.90;84.57;100789.50;10419204;27;97058;-79
2023/12/05 08:04:05;;;;;;;5.40;3.22;;;;;;;8.02;84.52;100790.13;10379468;28;97159;-79
2023/12/05 08:09:10;;;;;;;5.82;3.17;;;;;;;7.90;84.63;100786.03;10380365;28;96714;-79
2023/12/05 08:14:14;;;;;;;5.57;3.33;;;;;;;7.88;84.26;100767.72;10381307;28;96693;-79
2023/12/05 08:19:21;;;;;;;6.23;3.63;;;;;;;7.81;84.58;100763.50;10380299;28;97196;-79
2023/12/05 08:24:25;;;;;;;5.70;3.33;;;;;;;7.81;83.61;100749.53;10380561;28;96748;-79
2023/12/05 08:29:29;;;;;;;6.38;2.90;;;;;;;7.87;83.55;100744.16;10380119;28;96744;-79
2023/12/05 08:34:35;;;;;;;5.83;2.97;;;;;;;7.92;82.96;100750.19;10379845;28;96871;-79
2023/12/05 08:39:39;;;;;;;7.47;3.08;;;;;;;7.96;82.02;100738.75;10379719;28;97168;-79
2023/12/05 08:44:44;;;;;;;4.32;2.65;;;;;;;8.03;81.97;100742.09;10379650;28;96850;-79
2023/12/05 08:49:49;;;;;;;6.63;3.40;;;;;;;8.17;80.50;100742.66;10378172;28;96722;-79
2023/12/05 08:54:53;;;;;;;5.28;2.58;;;;;;;8.21;80.27;100749.53;10378856;28;97448;-79
2023/12/05 08:59:58;;;;;;;6.80;3.40;;;;;;;8.22;79.77;100746.88;10378772;28;97126;-79
2023/12/05 09:05:03;;;;;;;4.45;2.40;;;;;;;8.19;79.40;100733.84;10378579;28;96880;-79
2023/12/05 09:10:08;;;;;;;4.07;1.75;;;;;;;8.21;79.00;100736.44;10380008;28;97176;-79
2023/12/05 09:15:13;;;;;;;3.97;2.20;;;;;;;8.23;78.71;100735.50;10378400;28;96728;-79
2023/12/05 09:20:19;;;;;;;3.13;1.75;;;;;;;8.34;77.76;100736.09;10378644;28;96690;-79
2023/12/05 09:25:28;;;;;;;7.07;2.53;;;;;;;8.43;76.43;100733.28;10378790;28;96652;-79
2023/12/05 09:30:32;;;;;;;5.90;1.98;;;;;;;8.50;76.23;100747.09;10378056;28;97383;-79
2023/12/05 09:35:36;;;;;;;3.58;1.98;;;;;;;8.55;76.29;100743.47;10380638;28;96917;-79
2023/12/05 09:40:40;;;;;;;4.22;2.20;;;;;;;8.53;76.60;100750.53;10418059;28;98247;-79
2023/12/05 09:45:47;;;;;;;4.80;2.30;;;;;;;8.57;76.24;100731.19;10398717;28;96590;-79
2023/12/05 09:50:52;;;;;;;3.67;1.73;;;;;;;8.64;75.61;100722.28;10377256;28;96635;-79
2023/12/05 09:55:57;;;;;;;3.47;1.58;;;;;;;8.68;74.96;100702.97;10408484;28;96714;-79
2023/12/05 10:01:03;;;;;;;5.03;1.80;;;;;;;8.74;74.46;100721.16;10399894;28;96577;-79
2023/12/05 10:06:11;;;;;;;3.47;1.50;;;;;;;8.81;74.19;100716.59;10376606;28;96756;-79
2023/12/05 10:11:15;;;;;;;5.82;1.77;;;;;;;8.82;73.89;100711.34;10376674;28;96740;-79
2023/12/05 10:16:18;;;;;;;3.63;1.63;;;;;;;8.88;73.64;100710.31;10377508;28;96622;-79
2023/12/05 10:21:25;;;;;;;4.57;1.35;;;;;;;8.92;73.35;100718.09;10375853;28;96754;-79
2023/12/05 10:26:29;;;;;;;4.18;1.70;;;;;;;8.91;73.75;100710.25;10376945;28;97321;-79
2023/12/05 10:31:33;;;;;;;4.35;1.45;;;;;;;8.98;71.90;100690.81;10374927;28;97090;-79
2023/12/05 10:36:37;;;;;;;2.67;1.73;;;;;;;8.99;72.74;100693.41;10375954;28;97221;-79
2023/12/05 10:41:41;;;;;;;3.75;1.95;;;;;;;9.06;72.19;100694.97;10375846;28;96638;-79
2023/12/05 10:46:44;;;;;;;4.32;1.92;;;;;;;9.11;72.16;100677.34;10405042;28;97131;-79
2023/12/05 10:51:51;;;;;;;6.88;2.03;;;;;;;9.22;71.80;100668.28;10416910;28;96708;-79
2023/12/05 10:56:58;;;;;;;4.47;1.73;;;;;;;9.31;71.26;100679.41;10417286;28;96690;-79
2023/12/05 11:02:13;;;;;;;4.05;1.83;;;;;;;9.37;70.24;100657.38;10390240;28;97068;-79
2023/12/05 11:07:19;;;;;;;4.45;2.05;;;;;;;9.42;70.14;100647.59;10376351;28;97017;-79
2023/12/05 11:12:22;;;;;;;4.88;2.08;;;;;;;9.53;70.35;100640.28;10375271;28;96941;-79
2023/12/05 11:17:31;;;;;;;7.20;2.30;;;;;;;9.53;69.62;100643.78;10375414;28;96832;-79
2023/12/05 11:22:54;;;;;;;3.97;2.15;;;;;;;9.62;70.29;100637.41;10373874;28;96719;-79
2023/12/05 11:28:14;;;;;;;4.50;2.00;;;;;;;9.65;69.68;100625.03;10405756;28;96655;-79
2023/12/05 11:33:31;;;;;;;7.80;3.00;;;;;;;9.65;70.19;100611.91;10404618;28;96974;-79
2023/12/05 11:38:40;;;;;;;8.60;3.13;;;;;;;9.67;69.53;100598.72;10381418;28;97218;-79
2023/12/05 11:44:03;;;;;;;6.07;2.50;;;;;;;9.67;70.02;100588.19;10381318;28;96654;-79
2023/12/05 11:49:07;;;;;;;5.00;2.65;;;;;;;9.67;70.07;100590.81;10380464;28;97231;-79
2023/12/05 11:54:12;;;;;;;4.38;2.50;;;;;;;9.73;69.24;100582.75;10381285;28;96710;-79
2023/12/05 11:59:20;;;;;;;5.97;2.35;;;;;;;9.79;69.25;100577.31;10381263;28;97128;-79
2023/12/05 12:04:24;;;;;;;4.88;1.90;;;;;;;9.83;69.40;100563.19;10379951;28;97067;-80
2023/12/05 12:09:29;;;;;;;4.50;2.10;;;;;;;9.89;68.77;100574.34;10382312;28;97008;-79
2023/12/05 12:14:33;;;;;;;4.88;2.17;;;;;;;9.91;69.22;100566.41;10379031;28;97386;-79
2023/12/05 12:19:40;;;;;;;3.85;1.83;;;;;;;9.96;68.89;100559.22;10380201;28;96709;-79
2023/12/05 12:24:46;;;;;;;3.22;1.95;;;;;;;9.94;67.95;100556.66;10392865;28;97419;-79
2023/12/05 12:29:57;;;;;;;4.75;2.10;;;;;;;9.98;68.97;100546.91;10382088;28;97595;-79
2023/12/05 12:35:01;;;;;;;5.38;2.53;;;;;;;10.05;69.02;100535.28;10379410;28;96937;-80
2023/12/05 12:40:08;;;;;;;3.08;2.03;;;;;;;10.12;68.30;100528.91;10379290;28;96689;-79
2023/12/05 12:45:14;;;;;;;5.07;1.90;;;;;;;10.09;68.38;100521.13;10404258;28;97365;-79
2023/12/05 12:50:18;;;;;;;5.65;2.10;;;;;;;10.18;67.48;100526.06;10387993;28;96869;-79
2023/12/05 12:55:23;;;;;;;4.40;2.30;;;;;;;10.20;67.37;100526.88;10378840;28;96655;-79
2023/12/05 13:00:26;;;;;;;2.63;1.73;;;;;;;10.22;67.27;100519.78;10379404;28;97210;-79
2023/12/05 13:05:42;;;;;;;3.60;1.95;;;;;;;10.28;67.36;100514.34;10377603;28;97643;-79
2023/12/05 13:10:48;;;;;;;4.88;1.90;;;;;;;10.27;67.28;100502.94;10378429;28;97509;-79
2023/12/05 13:15:51;;;;;;;;;;;;;;;10.37;66.58;100492.13;10379083;28;96629;-79
2023/12/05 13:20:57;;;;;;;3.45;1.67;;;;;;;10.36;66.44;100477.22;10379198;28;96843;-79
2023/12/05 13:26:02;;;;;;;4.55;2.03;;;;;;;10.47;65.35;100473.28;10415023;28;96791;-79
2023/12/05 13:31:06;;;;;;;3.55;1.80;;;;;;;10.55;65.88;100459.88;10391527;28;96713;-79
2023/12/05 13:36:11;;;;;;;3.47;1.73;;;;;;;10.58;65.44;100455.38;10377676;28;96955;-79
2023/12/05 13:41:16;;;;;;;4.00;1.90;;;;;;;10.54;65.96;100445.84;10378409;28;97062;-79
2023/12/05 13:46:22;;;;;;;4.20;2.10;;;;;;;10.60;65.61;100442.16;10377546;28;97484;-79
2023/12/05 13:51:25;;;;;;;4.22;2.15;;;;;;;10.58;65.17;100430.81;10387702;28;96677;-79
2023/12/05 13:56:33;;;;;;;3.42;1.85;;;;;;;10.58;65.25;100434.31;10416896;27;96624;-79
2023/12/05 14:01:36;;;;;;;6.10;2.15;;;;;;;10.69;65.10;100436.56;10394533;28;96777;-79
2023/12/05 14:06:40;;;;;;;4.93;1.52;;;;;;;10.72;65.39;100436.44;10376152;28;97015;-79
2023/12/05 14:11:46;;;;;;;3.05;1.42;;;;;;;10.70;64.86;100438.25;10377216;28;96641;-79
2023/12/05 14:16:51;;;;;;;3.88;1.38;;;;;;;10.68;64.88;100446.22;10376701;28;96688;-79
2023/12/05 14:21:54;;;;;;;5.20;1.73;;;;;;;10.63;65.96;100455.19;10394120;28;97131;-79
2023/12/05 14:26:59;;;;;;;3.08;1.88;;;;;;;10.63;65.61;100447.28;10394414;28;96794;-79
2023/12/05 14:32:03;;;;;;;6.93;2.08;;;;;;;10.66;65.26;100444.56;10376966;28;97009;-79
2023/12/05 14:37:06;;;;;;;5.47;2.05;;;;;;;10.70;65.20;100456.69;10375274;28;96710;-79
2023/12/05 14:42:11;;;;;;;3.78;1.60;;;;;;;10.65;64.29;100456.84;10376722;28;97084;-79
2023/12/05 14:47:17;;;;;;;4.25;1.83;;;;;;;10.77;64.43;100448.50;10374817;28;97279;-79
2023/12/05 14:52:20;;;;;;;7.55;2.03;;;;;;;10.79;64.92;100444.06;10375120;28;96825;-79
2023/12/05 14:57:25;;;;;;;3.70;1.70;;;;;;;10.78;64.62;100436.22;10375494;28;96767;-79
2023/12/05 15:02:29;;;;;;;3.40;1.90;;;;;;;10.77;64.15;100435.34;10375629;28;96783;-79
2023/12/05 15:07:35;;;;;;;2.92;1.85;;;;;;;10.83;63.50;100431.63;10378304;28;97047;-79
2023/12/05 15:12:40;;;;;;;5.95;2.53;;;;;;;10.84;63.04;100415.78;10382272;28;96776;-79
2023/12/05 15:17:44;;;;;;;3.92;2.00;;;;;;;10.92;63.84;100423.38;10382680;28;97546;-79
2023/12/05 15:22:48;;;;;;;4.45;1.83;;;;;;;10.97;63.51;100416.16;10411617;28;97180;-79
2023/12/05 15:27:55;;;;;;;4.10;1.90;;;;;;;10.96;63.21;100423.19;10382203;28;97170;-79
2023/12/05 15:33:00;;;;;;;5.63;2.08;;;;;;;10.94;64.25;100430.28;10381995;28;96712;-79
2023/12/05 15:38:04;;;;;;;6.82;3.15;;;;;;;10.79;64.98;100424.75;10380521;28;97109;-79
2023/12/05 15:43:08;;;;;;;4.15;2.15;;;;;;;10.69;64.74;100431.28;10381625;28;97018;-79
2023/12/05 15:48:12;;;;;;;3.03;1.90;;;;;;;10.66;64.73;100416.44;10381721;28;97264;-79
2023/12/05 15:53:36;;;;;;;4.32;2.20;;;;;;;10.63;65.24;100420.97;10417199;28;96870;-79
2023/12/05 15:58:43;;;;;;;4.10;2.20;;;;;;;10.63;64.85;100413.94;10339669;28;96700;-79
2023/12/05 16:03:47;;;;;;;5.43;2.30;;;;;;;10.56;63.83;100422.97;10339553;28;97318;-79
2023/12/05 16:08:50;;;;;;;6.50;2.63;;;;;;;10.57;64.82;100432.59;10362285;28;96638;-79
2023/12/05 16:13:55;;;;;;;4.15;1.73;;;;;;;10.55;63.79;100439.69;10381010;28;96836;-79
2023/12/05 16:18:58;;;;;;;;;;;;;;;10.55;63.72;100444.97;10395727;27;97436;-79
2023/12/05 16:24:03;;;;;;;5.03;2.45;;;;;;;10.51;64.12;100455.63;10397490;28;96925;-79
2023/12/05 16:29:08;;;;;;;4.77;2.40;;;;;;;10.52;64.96;100450.34;10407181;28;97007;-79
2023/12/05 16:34:11;;;;;;;3.25;2.00;;;;;;;10.51;65.07;100453.88;10384488;22;97780;-79
2023/12/05 16:39:18;;;;;;;5.18;2.05;;;;;;;10.50;64.61;100451.28;10325671;28;96722;-79
2023/12/05 16:44:22;;;;;;;3.57;2.03;;;;;;;10.45;64.71;100448.84;10305126;28;97225;-79
2023/12/05 16:49:26;;;;;;;5.72;2.90;;;;;;;10.41;64.93;100444.59;10296973;28;96995;-79
2023/12/05 16:54:29;;;;;;;6.53;2.60;;;;;;;10.39;65.89;100443.78;10296267;28;96659;-79
2023/12/05 16:59:34;;;;;;;6.28;2.65;;;;;;;10.34;66.93;100443.09;10317637;28;96722;-79
2023/12/05 17:04:38;;;;;;;7.78;3.17;;;;;;;10.31;66.57;100422.16;10338065;28;96683;-79
2023/12/05 17:09:41;;;;;;;6.72;2.88;;;;;;;10.30;67.33;100423.06;10337230;28;97322;-79
2023/12/05 17:14:47;;;;;;;7.45;2.88;;;;;;;10.29;66.65;100416.09;10337608;28;97372;-79
2023/12/05 17:19:51;;;;;;;6.60;2.83;;;;;;;10.28;66.32;100423.13;10335747;28;96824;-79
2023/12/05 17:24:55;;;;;;;5.68;2.38;;;;;;;10.25;66.37;100410.09;10336858;28;96738;-79
2023/12/05 17:30:00;;;;;;;7.13;2.72;;;;;;;10.23;66.01;100405.78;10327784;28;96704;-79
2023/12/05 17:35:05;;;;;;;4.55;2.50;;;;;;;10.27;66.17;100399.50;10328138;28;97459;-79
2023/12/05 17:40:11;;;;;;;5.75;2.20;;;;;;;10.27;65.39;100410.03;10336666;28;96792;-79
2023/12/05 17:45:16;;;;;;;6.85;3.30;;;;;;;10.27;66.34;100415.28;10336299;28;96743;-79
2023/12/05 17:50:20;;;;;;;6.80;3.15;;;;;;;10.21;66.34;100412.91;10336320;28;96705;-79
2023/12/05 17:55:24;;;;;;;6.68;2.67;;;;;;;10.27;65.50;100433.69;10336681;28;96748;-79
2023/12/05 18:00:29;;;;;;;7.88;2.80;;;;;;;10.27;66.22;100442.47;10335682;28;97927;-79
2023/12/05 18:05:33;;;;;;;4.75;2.72;;;;;;;10.25;66.50;100438.16;10336043;28;97369;-79
2023/12/05 18:10:39;;;;;;;;;;;;;;;10.20;66.48;100419.91;10360791;28;96742;-79
2023/12/05 18:15:44;;;;;;;4.00;2.15;;;;;;;10.23;66.39;100411.03;10376881;28;96733;-79
2023/12/05 18:20:48;;;;;;;4.85;3.10;;;;;;;10.20;66.82;100398.88;10376622;28;97155;-79
2023/12/05 18:25:51;;;;;;;5.53;2.58;;;;;;;10.17;65.87;100404.25;10345492;28;96693;-79
2023/12/05 18:30:59;;;;;;;5.68;2.72;;;;;;;10.21;65.88;100412.91;10334445;28;96813;-79
2023/12/05 18:36:05;;;;;;;8.68;3.42;;;;;;;10.23;65.59;100411.03;10334381;28;96702;-79
2023/12/05 18:41:08;;;;;;;6.57;3.20;;;;;;;10.22;65.18;100414.59;10335343;28;96687;-79
2023/12/05 18:46:13;;;;;;;5.85;3.45;;;;;;;10.24;65.26;100429.44;10342657;28;98202;-79
2023/12/05 18:51:18;;;;;;;5.13;3.28;;;;;;;10.25;65.13;100406.59;10342144;28;97448;-79
2023/12/05 18:56:21;;;;;;;6.03;2.75;;;;;;;10.23;65.26;100405.78;10342239;28;96797;-79
2023/12/05 19:01:26;;;;;;;5.47;2.58;;;;;;;10.20;65.30;100403.28;10340181;28;96835;-79
2023/12/05 19:06:30;;;;;;;4.65;2.50;;;;;;;10.24;65.03;100375.97;10342309;28;96692;-79
2023/12/05 19:11:36;;;;;;;4.03;2.20;;;;;;;10.26;65.17;100342.59;10382286;28;96804;-79
2023/12/05 19:16:42;;;;;;;7.97;2.55;;;;;;;10.25;64.58;100339.09;10353300;28;96591;-79
2023/12/05 19:21:47;;;;;;;5.18;2.58;;;;;;;10.23;64.84;100329.53;10340702;28;96720;-79
2023/12/05 19:26:54;;;;;;;5.10;2.25;;;;;;;10.26;64.50;100324.16;10340619;28;97566;-79
2023/12/05 19:32:13;;;;;;;7.80;2.55;;;;;;;10.26;64.92;100318.91;10346405;28;97344;-79
2023/12/05 19:37:18;;;;;;;4.30;2.45;;;;;;;10.23;64.74;100311.97;10381614;28;96905;-79
2023/12/05 19:42:22;;;;;;;4.22;1.70;;;;;;;10.25;65.79;100315.41;10381898;28;97195;-79
2023/12/05 19:47:27;;;;;;;4.40;2.47;;;;;;;10.30;64.55;100317.88;10380530;28;97353;-79
2023/12/05 19:52:33;;;;;;;5.30;2.15;;;;;;;10.31;64.80;100313.47;10379866;28;97230;-79
2023/12/05 19:57:37;;;;;;;5.18;2.42;;;;;;;10.34;65.23;100335.25;10380476;28;97264;-79
2023/12/05 20:02:42;;;;;;;4.97;2.28;;;;;;;10.33;65.37;100330.91;10380922;28;96678;-79
2023/12/05 20:07:45;;;;;;;5.60;2.40;;;;;;;10.34;64.60;100321.22;10350396;28;96787;-79
2023/12/05 20:12:49;;;;;;;4.35;2.05;;;;;;;10.31;64.57;100322.22;10339310;28;96644;-79
2023/12/05 20:17:58;;;;;;;3.33;1.95;;;;;;;10.34;64.42;100335.25;10339183;28;97213;-79
2023/12/05 20:23:02;;;;;;;4.68;2.53;;;;;;;10.31;63.92;100335.38;10354108;28;97105;-79
2023/12/05 20:28:05;;;;;;;4.15;1.95;;;;;;;10.27;65.29;100323.25;10380698;28;96916;-80
2023/12/05 20:33:12;;;;;;;4.20;2.65;;;;;;;10.25;65.24;100314.56;10311986;28;96920;-79
2023/12/05 20:38:16;;;;;;;4.07;1.92;;;;;;;10.19;65.44;100325.31;10298796;28;96806;-80
2023/12/05 20:43:20;;;;;;;5.65;2.15;;;;;;;10.05;66.11;100335.47;10337451;28;97237;-79
2023/12/05 20:48:27;;;;;;;4.55;2.03;;;;;;;9.87;67.19;100355.38;10338027;28;96819;-79
2023/12/05 20:53:31;;;;;;;3.65;2.22;;;;;;;9.75;67.23;100360.19;10338586;28;97079;-79
2023/12/05 20:58:34;;;;;;;3.22;2.05;;;;;;;9.57;67.50;100342.47;10338303;28;96797;-79
2023/12/05 21:03:40;;;;;;;5.80;2.47;;;;;;;9.25;69.05;100377.66;10352014;28;96910;-79
2023/12/05 21:08:44;;;;;;;3.67;2.78;;;;;;;9.02;70.33;100383.59;10368770;28;96728;-79
2023/12/05 21:14:07;;;;;;;6.53;3.15;;;;;;;8.83;71.13;100392.06;10337460;28;97055;-79
2023/12/05 21:19:16;;;;;;;7.63;4.95;;;;;;;8.76;71.17;100412.41;10337873;28;96606;-79
2023/12/05 21:24:20;;;;;;;6.63;3.45;;;;;;;8.74;71.70;100411.56;10336665;28;96683;-79
2023/12/05 21:29:25;;;;;;;4.73;2.53;;;;;;;8.86;71.49;100411.22;10336022;28;96807;-79
2023/12/05 21:34:31;;;;;;;4.45;2.50;;;;;;;8.68;71.14;100403.91;10335218;28;96638;-79
2023/12/05 21:39:35;;;;;;;5.30;3.08;;;;;;;8.66;72.01;100416.19;10336347;28;96734;-79
2023/12/05 21:44:42;;;;;;;5.32;3.00;;;;;;;8.44;72.26;100415.09;10336388;28;96679;-79
2023/12/05 21:49:47;;;;;;;8.82;4.07;;;;;;;8.29;72.38;100431.25;10336666;28;96836;-79
2023/12/05 21:54:50;;;;;;;9.55;4.25;;;;;;;8.19;73.57;100442.88;10335927;28;96677;-79
2023/12/05 21:59:54;;;;;;;9.00;3.97;;;;;;;8.14;73.87;100441.28;10335791;28;97552;-79
2023/12/05 22:04:59;;;;;;;5.70;3.78;;;;;;;8.11;73.84;100444.00;10353147;28;96769;-79
2023/12/05 22:10:03;;;;;;;4.43;2.97;;;;;;;8.14;73.74;100447.41;10336689;28;96701;-79
2023/12/05 22:15:08;;;;;;;5.18;3.28;;;;;;;8.16;73.69;100461.31;10335226;28;96834;-79
2023/12/05 22:20:13;;;;;;;8.33;3.87;;;;;;;8.27;73.54;100461.91;10334977;28;97384;-79
2023/12/05 22:25:17;;;;;;;5.32;2.63;;;;;;;8.32;73.38;100467.03;10293208;28;96663;-79
2023/12/05 22:30:21;;;;;;;6.70;2.58;;;;;;;8.33;73.18;100469.59;10304840;28;96899;-79
2023/12/05 22:35:27;;;;;;;5.03;2.40;;;;;;;8.49;72.61;100464.78;10334558;28;96724;-79
2023/12/05 22:40:31;;;;;;;4.50;2.25;;;;;;;8.56;72.55;100475.06;10335331;28;96707;-79
2023/12/05 22:45:35;;;;;;;4.88;2.30;;;;;;;8.64;72.14;100480.97;10335054;28;97377;-79
2023/12/05 22:50:40;;;;;;;6.07;3.30;;;;;;;8.69;72.37;100479.06;10334555;28;96773;-79
2023/12/05 22:55:43;;;;;;;4.25;2.08;;;;;;;8.43;74.34;100488.56;10335367;28;96998;-79
2023/12/05 23:00:47;;;;;;;4.95;2.60;;;;;;;8.45;73.54;100492.84;10349991;28;97146;-79
2023/12/05 23:05:52;;;;;;;5.00;2.63;;;;;;;8.49;72.98;100481.41;10375307;28;96859;-79
2023/12/05 23:10:55;;;;;;;7.75;2.70;;;;;;;8.53;73.88;100480.38;10375165;28;97110;-79
2023/12/05 23:15:59;;;;;;;3.78;1.88;;;;;;;8.53;73.33;100471.69;10334247;28;96811;-79
2023/12/05 23:21:04;;;;;;;4.47;2.67;;;;;;;8.48;73.48;100469.16;10333765;28;96606;-79
2023/12/05 23:26:08;;;;;;;5.45;2.53;;;;;;;8.49;73.50;100480.53;10333790;28;97388;-79
2023/12/05 23:31:11;;;;;;;5.93;2.65;;;;;;;8.46;73.24;100483.25;10328544;28;98942;-79
2023/12/05 23:36:16;;;;;;;4.10;2.38;;;;;;;8.43;73.71;100497.28;10299124;28;97280;-79
2023/12/05 23:41:20;;;;;;;4.40;2.53;;;;;;;8.43;73.44;100499.91;10299593;28;97639;-79
2023/12/05 23:46:23;;;;;;;4.22;2.40;;;;;;;8.41;73.92;100493.00;10310687;28;97342;-79